createdAt,value
2018-04-19T00:00:03.975Z,0
2018-04-19T00:01:14.058Z,0
2018-04-19T00:02:24.156Z,0
2018-04-19T00:03:34.233Z,0
2018-04-19T00:04:43.804Z,0
2018-04-19T00:05:53.886Z,0
2018-04-19T00:07:03.972Z,0
2018-04-19T00:08:14.049Z,0
2018-04-19T00:09:24.167Z,0
2018-04-19T00:10:34.197Z,0
2018-04-19T00:11:43.684Z,0
2018-04-19T00:12:53.523Z,0
2018-04-19T00:14:03.533Z,0
2018-04-19T00:15:13.593Z,0
2018-04-19T00:16:23.591Z,0
2018-04-19T00:17:33.607Z,0
2018-04-19T00:18:43.110Z,0
2018-04-19T00:19:52.868Z,0
2018-04-19T00:21:02.881Z,0
2018-04-19T00:22:12.908Z,0
2018-04-19T00:23:22.918Z,0
2018-04-19T00:24:32.895Z,0
2018-04-19T00:25:42.918Z,0
2018-04-19T00:26:52.751Z,0
2018-04-19T00:28:02.779Z,0
2018-04-19T00:29:12.556Z,0
2018-04-19T00:30:22.577Z,0
2018-04-19T00:31:32.338Z,0
2018-04-19T00:32:42.339Z,0
2018-04-19T00:33:51.867Z,0
2018-04-19T00:35:01.143Z,0
2018-04-19T00:36:11.231Z,0
2018-04-19T00:37:20.973Z,0
2018-04-19T00:38:30.737Z,0
2018-04-19T00:39:40.501Z,0
2018-04-19T00:40:50.534Z,0
2018-04-19T00:42:00.541Z,0
2018-04-19T00:43:10.542Z,0
2018-04-19T00:44:20.567Z,0
2018-04-19T00:45:30.595Z,0
2018-04-19T00:46:40.589Z,0
2018-04-19T00:47:50.603Z,0
2018-04-19T00:49:00.352Z,0
2018-04-19T00:50:10.154Z,0
2018-04-19T00:51:20.222Z,0
2018-04-19T00:52:29.979Z,0
2018-04-19T00:53:39.738Z,0
2018-04-19T00:54:49.507Z,0
2018-04-19T00:55:59.567Z,0
2018-04-19T00:57:09.586Z,0
2018-04-19T00:58:19.360Z,0
2018-04-19T00:59:29.383Z,0
2018-04-19T01:00:39.396Z,0
2018-04-19T01:01:49.145Z,0
2018-04-19T01:02:58.904Z,0
2018-04-19T01:04:08.658Z,0
2018-04-19T01:05:18.668Z,0
2018-04-19T01:06:28.696Z,0
2018-04-19T01:07:38.704Z,0
2018-04-19T01:08:48.729Z,0
2018-04-19T01:09:58.777Z,0
2018-04-19T01:11:08.801Z,0
2018-04-19T01:12:18.561Z,0
2018-04-19T01:13:28.319Z,0
2018-04-19T01:14:38.337Z,0
2018-04-19T01:15:48.349Z,0
2018-04-19T01:16:58.367Z,0
2018-04-19T01:18:07.869Z,0
2018-04-19T01:19:17.960Z,0
2018-04-19T01:20:27.715Z,0
2018-04-19T01:21:37.734Z,0
2018-04-19T01:22:47.821Z,0
2018-04-19T01:23:57.583Z,0
2018-04-19T01:25:07.601Z,0
2018-04-19T01:26:17.640Z,0
2018-04-19T01:27:27.676Z,0
2018-04-19T01:28:37.703Z,0
2018-04-19T01:29:47.731Z,0
2018-04-19T01:30:57.732Z,0
2018-04-19T01:32:07.762Z,0
2018-04-19T01:33:17.779Z,0
2018-04-19T01:34:27.805Z,0
2018-04-19T01:35:37.814Z,0
2018-04-19T01:36:47.845Z,0
2018-04-19T01:37:57.841Z,0
2018-04-19T01:39:07.876Z,0
2018-04-19T01:40:17.898Z,0
2018-04-19T01:41:27.675Z,0
2018-04-19T01:42:37.745Z,0
2018-04-19T01:43:47.770Z,0
2018-04-19T01:44:57.266Z,0
2018-04-19T01:46:07.029Z,0
2018-04-19T01:47:16.848Z,0
2018-04-19T01:48:26.932Z,0
2018-04-19T01:49:37.027Z,0
2018-04-19T01:50:47.121Z,0
2018-04-19T01:51:57.182Z,0
2018-04-19T01:53:07.284Z,0
2018-04-19T01:54:17.364Z,0
2018-04-19T01:55:27.458Z,0
2018-04-19T01:56:37.551Z,0
2018-04-19T01:57:47.632Z,0
2018-04-19T01:58:57.712Z,0
2018-04-19T02:00:07.325Z,0
2018-04-19T02:01:17.141Z,0
2018-04-19T02:02:26.977Z,0
2018-04-19T02:03:37.052Z,0
2018-04-19T02:04:46.860Z,0
2018-04-19T02:05:56.466Z,0
2018-04-19T02:07:06.329Z,0
2018-04-19T02:08:16.373Z,0
2018-04-19T02:09:26.439Z,0
2018-04-19T02:10:36.506Z,0
2018-04-19T02:11:46.594Z,0
2018-04-19T02:12:56.669Z,0
2018-04-19T02:14:06.749Z,0
2018-04-19T02:15:16.304Z,0
2018-04-19T02:16:26.367Z,0
2018-04-19T02:17:36.440Z,0
2018-04-19T02:18:46.518Z,0
2018-04-19T02:19:56.632Z,0
2018-04-19T02:21:06.192Z,0
2018-04-19T02:22:16.017Z,0
2018-04-19T02:23:25.868Z,0
2018-04-19T02:24:35.418Z,0
2018-04-19T02:25:45.524Z,0
2018-04-19T02:26:55.618Z,0
2018-04-19T02:28:05.442Z,0
2018-04-19T02:29:14.722Z,0
2018-04-19T02:30:24.539Z,0
2018-04-19T02:31:34.367Z,0
2018-04-19T02:32:44.203Z,0
2018-04-19T02:33:54.066Z,0
2018-04-19T02:35:03.891Z,0
2018-04-19T02:36:14.000Z,0
2018-04-19T02:37:24.092Z,0
2018-04-19T02:38:34.163Z,0
2018-04-19T02:39:44.245Z,0
2018-04-19T02:40:54.327Z,0
2018-04-19T02:42:04.139Z,0
2018-04-19T02:43:14.264Z,0
2018-04-19T02:44:24.332Z,0
2018-04-19T02:45:34.169Z,0
2018-04-19T02:46:44.322Z,0
2018-04-19T02:47:54.391Z,0
2018-04-19T02:49:04.477Z,0
2018-04-19T02:50:14.566Z,0
2018-04-19T02:51:24.404Z,0
2018-04-19T02:52:34.512Z,0
2018-04-19T02:53:44.586Z,0
2018-04-19T02:54:54.413Z,0
2018-04-19T02:56:04.508Z,0
2018-04-19T02:57:14.346Z,0
2018-04-19T02:58:28.905Z,0
2018-04-19T02:59:41.938Z,0
2018-04-19T03:00:52.576Z,0
2018-04-19T03:02:02.403Z,0
2018-04-19T03:33:46.630Z,8
2018-04-19T03:34:56.483Z,8
2018-04-19T03:36:06.573Z,8
2018-04-19T03:37:16.632Z,8
2018-04-19T03:38:26.725Z,12
2018-04-19T03:39:36.839Z,12
2018-04-19T03:40:47.000Z,16
2018-04-19T03:41:56.808Z,20
2018-04-19T03:43:06.869Z,20
2018-04-19T03:44:16.933Z,24
2018-04-19T03:45:27.064Z,32
2018-04-19T03:46:36.864Z,36
2018-04-19T03:47:46.941Z,44
2018-04-19T03:48:57.024Z,52
2018-04-19T03:50:07.109Z,60
2018-04-19T03:51:17.204Z,68
2018-04-19T03:52:27.020Z,76
2018-04-19T03:53:37.107Z,92
2018-04-19T03:54:47.191Z,100
2018-04-19T03:55:57.262Z,112
2018-04-19T03:57:07.141Z,128
2018-04-19T03:58:17.203Z,144
2018-04-19T03:59:27.296Z,160
2018-04-19T04:00:37.375Z,180
2018-04-19T04:01:47.469Z,196
2018-04-19T04:02:57.589Z,212
2018-04-19T04:04:07.647Z,236
2018-04-19T04:05:17.467Z,256
2018-04-19T04:06:27.301Z,280
2018-04-19T04:07:37.120Z,304
2018-04-19T04:08:47.299Z,328
2018-04-19T04:09:57.425Z,360
2018-04-19T04:11:07.238Z,388
2018-04-19T04:12:17.034Z,420
2018-04-19T04:13:27.117Z,444
2018-04-19T04:14:37.237Z,480
2018-04-19T04:15:47.040Z,512
2018-04-19T04:16:57.116Z,556
2018-04-19T04:18:07.194Z,628
2018-04-19T04:19:17.294Z,856
2018-04-19T04:20:26.903Z,1032
2018-04-19T04:21:37.052Z,1056
2018-04-19T04:22:47.133Z,1292
2018-04-19T04:23:57.213Z,1464
2018-04-19T04:25:07.297Z,1596
2018-04-19T04:26:17.117Z,1356
2018-04-19T04:27:27.217Z,1020
2018-04-19T04:28:37.303Z,1096
2018-04-19T04:29:47.415Z,1736
2018-04-19T04:30:57.473Z,2276
2018-04-19T04:32:07.599Z,2552
2018-04-19T04:33:17.402Z,2748
2018-04-19T04:34:27.526Z,2932
2018-04-19T04:35:37.609Z,3108
2018-04-19T04:36:47.684Z,3248
2018-04-19T04:37:57.822Z,3480
2018-04-19T04:39:07.630Z,3648
2018-04-19T04:40:17.447Z,3816
2018-04-19T04:41:27.539Z,3872
2018-04-19T04:42:37.608Z,3988
2018-04-19T04:43:47.773Z,4176
2018-04-19T04:44:57.866Z,4344
2018-04-19T04:46:07.943Z,4528
2018-04-19T04:47:17.774Z,4720
2018-04-19T04:48:27.844Z,4848
2018-04-19T04:49:37.927Z,5000
2018-04-19T04:50:48.011Z,5092
2018-04-19T04:51:58.096Z,5216
2018-04-19T04:53:08.168Z,5308
2018-04-19T04:54:18.266Z,5404
2018-04-19T04:55:28.347Z,5468
2018-04-19T04:56:38.427Z,5596
2018-04-19T04:57:48.492Z,5764
2018-04-19T04:58:58.320Z,5896
2018-04-19T05:00:08.665Z,5984
2018-04-19T05:01:18.636Z,6080
2018-04-19T05:02:28.704Z,6116
2018-04-19T05:03:38.785Z,6168
2018-04-19T05:04:48.864Z,6292
2018-04-19T05:05:59.008Z,6384
2018-04-19T05:07:08.838Z,6472
2018-04-19T05:08:18.912Z,6632
2018-04-19T05:09:28.990Z,6692
2018-04-19T05:10:38.819Z,6792
2018-04-19T05:11:48.965Z,6888
2018-04-19T05:12:58.782Z,6976
2018-04-19T05:14:08.878Z,7140
2018-04-19T05:15:18.710Z,7296
2018-04-19T05:16:28.802Z,7292
2018-04-19T05:17:38.947Z,7288
2018-04-19T05:18:49.047Z,7396
2018-04-19T05:19:58.878Z,7420
2018-04-19T05:21:08.953Z,7584
2018-04-19T05:22:18.789Z,7572
2018-04-19T05:23:28.885Z,7596
2018-04-19T05:24:38.995Z,7672
2018-04-19T05:25:49.090Z,7656
2018-04-19T05:26:59.181Z,7660
2018-04-19T05:28:09.290Z,7680
2018-04-19T05:29:19.389Z,7820
2018-04-19T05:30:29.472Z,7960
2018-04-19T05:31:39.637Z,7928
2018-04-19T05:32:49.793Z,7836
2018-04-19T05:33:59.870Z,7780
2018-04-19T05:35:09.225Z,7780
2018-04-19T05:36:19.315Z,7696
2018-04-19T05:37:29.421Z,7656
2018-04-19T05:38:39.520Z,7372
2018-04-19T05:39:49.322Z,5352
2018-04-19T05:40:59.417Z,3448
2018-04-19T05:42:09.241Z,3284
2018-04-19T05:43:19.314Z,3292
2018-04-19T05:44:29.142Z,4552
2018-04-19T05:45:39.232Z,6696
2018-04-19T05:46:49.318Z,7068
2018-04-19T05:47:59.145Z,4840
2018-04-19T05:49:09.236Z,3444
2018-04-19T05:50:19.091Z,3408
2018-04-19T05:51:29.169Z,3408
2018-04-19T05:52:39.245Z,3420
2018-04-19T05:53:49.071Z,3548
2018-04-19T05:54:59.158Z,3512
2018-04-19T05:56:09.223Z,3528
2018-04-19T05:57:19.064Z,4108
2018-04-19T05:58:29.165Z,5556
2018-04-19T05:59:39.249Z,6612
2018-04-19T06:00:48.809Z,6388
2018-04-19T06:01:58.884Z,5140
2018-04-19T06:03:08.867Z,3960
2018-04-19T06:04:18.697Z,3668
2018-04-19T06:05:28.794Z,3652
2018-04-19T06:06:38.906Z,4156
2018-04-19T06:07:48.733Z,5216
2018-04-19T06:08:58.839Z,5908
2018-04-19T06:10:08.987Z,5740
2018-04-19T06:11:18.537Z,4888
2018-04-19T06:12:28.646Z,4048
2018-04-19T06:13:38.733Z,3804
2018-04-19T06:14:48.552Z,3756
2018-04-19T06:15:58.626Z,3736
2018-04-19T06:17:08.708Z,3740
2018-04-19T06:18:18.805Z,3752
2018-04-19T06:19:28.904Z,3764
2018-04-19T06:20:39.000Z,3780
2018-04-19T06:21:48.862Z,3796
2018-04-19T06:22:58.687Z,3808
2018-04-19T06:24:08.517Z,3828
2018-04-19T06:25:18.617Z,3836
2018-04-19T06:26:28.728Z,3856
2018-04-19T06:27:38.549Z,3872
2018-04-19T06:28:48.625Z,3876
2018-04-19T06:29:58.447Z,3904
2018-04-19T06:31:08.269Z,3916
2018-04-19T06:32:18.084Z,3928
2018-04-19T06:33:28.224Z,3944
2018-04-19T06:34:38.314Z,3960
2018-04-19T06:35:48.410Z,3988
2018-04-19T06:36:58.488Z,4000
2018-04-19T06:38:08.292Z,4020
2018-04-19T06:39:18.426Z,4040
2018-04-19T06:40:28.521Z,4052
2018-04-19T06:41:38.747Z,4072
2018-04-19T06:42:48.837Z,4088
2018-04-19T06:43:58.927Z,4104
2018-04-19T06:45:08.989Z,4116
2018-04-19T06:46:19.086Z,4144
2018-04-19T06:47:29.164Z,4164
2018-04-19T06:48:39.256Z,4168
2018-04-19T06:49:49.356Z,4188
2018-04-19T06:50:59.447Z,4208
2018-04-19T06:52:09.275Z,4228
2018-04-19T06:53:18.567Z,4232
2018-04-19T06:54:28.379Z,4264
2018-04-19T06:55:38.454Z,4276
2018-04-19T06:56:48.540Z,4288
2018-04-19T06:57:58.635Z,4308
2018-04-19T06:59:08.717Z,4332
2018-04-19T07:00:18.803Z,4344
2018-04-19T07:01:28.878Z,4376
2018-04-19T07:02:38.981Z,4388
2018-04-19T07:03:49.075Z,4408
2018-04-19T07:04:58.898Z,4444
2018-04-19T07:06:08.980Z,4460
2018-04-19T07:07:18.805Z,4480
2018-04-19T07:08:28.147Z,4500
2018-04-19T07:09:37.990Z,4524
2018-04-19T07:10:48.081Z,4520
2018-04-19T07:11:58.183Z,4528
2018-04-19T07:13:08.011Z,4544
2018-04-19T07:14:17.887Z,4556
2018-04-19T07:15:27.957Z,4572
2018-04-19T07:16:38.022Z,4592
2018-04-19T07:17:48.127Z,4612
2018-04-19T07:18:58.199Z,4632
2018-04-19T07:20:08.296Z,4652
2018-04-19T07:21:18.388Z,4676
2018-04-19T07:22:27.960Z,4680
2018-04-19T07:23:37.802Z,4692
2018-04-19T07:24:47.908Z,4712
2018-04-19T07:25:57.567Z,4732
2018-04-19T07:27:07.680Z,4752
2018-04-19T07:28:17.257Z,4772
2018-04-19T07:29:27.370Z,4792
2018-04-19T07:30:37.444Z,4820
2018-04-19T07:31:47.548Z,4840
2018-04-19T07:32:57.641Z,4852
2018-04-19T07:34:07.475Z,4876
2018-04-19T07:35:17.559Z,4892
2018-04-19T07:36:27.657Z,4908
2018-04-19T07:37:37.805Z,4920
2018-04-19T07:38:47.880Z,4940
2018-04-19T07:39:57.966Z,4948
2018-04-19T07:41:07.790Z,4956
2018-04-19T07:42:17.881Z,4964
2018-04-19T07:43:27.969Z,4988
2018-04-19T07:44:38.056Z,5008
2018-04-19T07:45:48.385Z,5020
2018-04-19T07:46:58.479Z,5040
2018-04-19T07:48:08.583Z,5060
2018-04-19T07:49:18.674Z,5076
2018-04-19T07:50:28.772Z,5084
2018-04-19T07:51:38.668Z,5096
2018-04-19T07:52:48.496Z,5112
2018-04-19T07:53:58.351Z,5116
2018-04-19T07:55:08.216Z,5120
2018-04-19T07:56:18.325Z,5124
2018-04-19T07:57:28.422Z,5140
2018-04-19T07:58:38.264Z,5164
2018-04-19T07:59:48.361Z,5172
2018-04-19T08:00:58.464Z,5192
2018-04-19T08:02:08.562Z,5208
2018-04-19T08:03:18.363Z,5216
2018-04-19T08:04:27.867Z,5232
2018-04-19T08:05:37.718Z,5252
2018-04-19T08:06:47.737Z,5260
2018-04-19T08:07:57.785Z,5284
2018-04-19T08:09:07.815Z,5296
2018-04-19T08:10:17.582Z,5316
2018-04-19T08:11:27.942Z,5340
2018-04-19T08:12:38.057Z,5352
2018-04-19T08:13:47.845Z,5360
2018-04-19T08:14:57.877Z,5368
2018-04-19T08:16:07.900Z,5392
2018-04-19T08:17:17.671Z,5412
2018-04-19T08:18:27.702Z,5424
2018-04-19T08:19:37.449Z,5432
2018-04-19T08:20:47.516Z,5444
2018-04-19T08:21:57.574Z,5444
2018-04-19T08:23:07.658Z,5468
2018-04-19T08:24:17.795Z,5480
2018-04-19T08:25:27.879Z,5488
2018-04-19T08:26:37.704Z,5500
2018-04-19T08:27:47.550Z,5516
2018-04-19T08:28:57.363Z,5516
2018-04-19T08:30:07.185Z,5528
2018-04-19T08:31:17.276Z,5528
2018-04-19T08:32:27.344Z,5540
2018-04-19T08:33:37.444Z,5556
2018-04-19T08:34:47.534Z,5576
2018-04-19T08:35:57.621Z,5588
2018-04-19T08:37:07.713Z,5592
2018-04-19T08:38:17.801Z,5632
2018-04-19T08:39:27.878Z,5640
2018-04-19T08:40:37.956Z,5644
2018-04-19T08:41:48.078Z,5668
2018-04-19T08:42:58.179Z,5696
2018-04-19T08:44:08.264Z,5708
2018-04-19T08:45:18.358Z,5748
2018-04-19T08:46:28.173Z,5764
2018-04-19T08:47:38.266Z,5788
2018-04-19T08:48:48.345Z,5808
2018-04-19T08:49:58.441Z,5808
2018-04-19T08:51:08.536Z,5816
2018-04-19T08:52:18.637Z,5844
2018-04-19T08:53:28.751Z,5836
2018-04-19T08:54:38.833Z,5828
2018-04-19T08:55:48.938Z,5856
2018-04-19T08:56:58.773Z,5844
2018-04-19T08:58:08.869Z,5720
2018-04-19T08:59:18.976Z,5740
2018-04-19T09:00:29.072Z,5780
2018-04-19T09:01:39.159Z,5720
2018-04-19T09:02:49.149Z,5832
2018-04-19T09:03:59.289Z,5896
2018-04-19T09:05:09.452Z,5972
2018-04-19T09:06:19.547Z,6008
2018-04-19T09:07:29.655Z,6040
2018-04-19T09:08:39.739Z,6056
2018-04-19T09:09:49.843Z,6096
2018-04-19T09:10:59.674Z,6136
2018-04-19T09:12:09.496Z,6160
2018-04-19T09:13:19.584Z,6180
2018-04-19T09:14:29.691Z,6192
2018-04-19T09:15:39.779Z,6188
2018-04-19T09:16:49.869Z,6180
2018-04-19T09:17:59.415Z,6184
2018-04-19T09:19:09.521Z,6224
2018-04-19T09:20:19.352Z,6220
2018-04-19T09:21:29.446Z,6216
2018-04-19T09:22:39.675Z,6224
2018-04-19T09:23:49.766Z,6260
2018-04-19T09:24:59.870Z,6304
2018-04-19T09:26:09.959Z,6344
2018-04-19T09:27:20.031Z,6336
2018-04-19T09:28:30.105Z,6392
2018-04-19T09:29:40.187Z,6380
2018-04-19T09:30:50.030Z,6396
2018-04-19T09:32:00.148Z,6356
2018-04-19T09:33:09.988Z,6376
2018-04-19T09:34:19.873Z,6364
2018-04-19T09:35:29.960Z,6364
2018-04-19T09:36:40.041Z,6384
2018-04-19T09:37:50.125Z,6396
2018-04-19T09:39:00.276Z,6356
2018-04-19T09:40:10.113Z,6436
2018-04-19T09:41:20.205Z,6416
2018-04-19T09:42:30.298Z,6460
2018-04-19T09:43:40.384Z,6460
2018-04-19T09:44:49.935Z,6472
2018-04-19T09:45:59.816Z,6432
2018-04-19T09:47:09.919Z,6348
2018-04-19T09:48:20.023Z,6400
2018-04-19T09:49:30.096Z,6428
2018-04-19T09:50:39.908Z,6464
2018-04-19T09:51:50.021Z,6524
2018-04-19T09:53:00.148Z,6564
2018-04-19T09:54:10.858Z,6556
2018-04-19T09:55:21.154Z,6568
2018-04-19T09:56:31.255Z,6596
2018-04-19T09:57:41.341Z,6600
2018-04-19T09:58:51.440Z,6620
2018-04-19T10:00:01.547Z,6600
2018-04-19T10:01:11.657Z,6624
2018-04-19T10:02:21.821Z,6636
2018-04-19T10:03:31.656Z,6676
2018-04-19T10:04:41.742Z,6652
2018-04-19T10:05:51.821Z,6692
2018-04-19T10:07:01.638Z,6672
2018-04-19T10:08:11.719Z,6740
2018-04-19T10:09:21.817Z,6736
2018-04-19T10:10:32.086Z,6736
2018-04-19T10:11:42.180Z,6684
2018-04-19T10:12:52.004Z,6708
2018-04-19T10:14:01.835Z,6696
2018-04-19T10:15:11.386Z,6724
2018-04-19T10:16:21.472Z,6768
2018-04-19T10:17:31.059Z,6772
2018-04-19T10:18:41.146Z,6792
2018-04-19T10:19:50.706Z,6808
2018-04-19T10:21:00.559Z,6784
2018-04-19T10:22:10.692Z,6784
2018-04-19T10:23:20.829Z,6756
2018-04-19T10:24:30.903Z,6768
2018-04-19T10:25:40.994Z,6764
2018-04-19T10:26:51.094Z,6832
2018-04-19T10:28:00.928Z,6772
2018-04-19T10:29:11.019Z,6832
2018-04-19T10:30:21.099Z,6908
2018-04-19T10:31:31.220Z,6880
2018-04-19T10:32:41.396Z,6880
2018-04-19T10:33:51.324Z,6868
2018-04-19T10:35:00.927Z,6896
2018-04-19T10:36:11.019Z,6856
2018-04-19T10:37:20.834Z,6876
2018-04-19T10:38:30.671Z,6884
2018-04-19T10:39:40.749Z,6932
2018-04-19T10:40:50.560Z,6900
2018-04-19T10:42:00.651Z,6908
2018-04-19T10:43:10.749Z,6960
2018-04-19T10:44:20.585Z,6976
2018-04-19T10:45:30.426Z,6944
2018-04-19T10:46:40.515Z,6992
2018-04-19T10:47:50.590Z,6976
2018-04-19T10:49:00.688Z,7032
2018-04-19T10:50:10.774Z,7024
2018-04-19T10:51:20.845Z,7028
2018-04-19T10:52:30.963Z,6960
2018-04-19T10:53:40.795Z,6952
2018-04-19T10:54:50.869Z,6956
2018-04-19T10:56:00.698Z,6996
2018-04-19T10:57:10.799Z,6988
2018-04-19T10:58:20.937Z,7016
2018-04-19T10:59:30.777Z,7016
2018-04-19T11:00:40.337Z,7064
2018-04-19T11:01:50.162Z,7076
2018-04-19T11:03:00.253Z,7088
2018-04-19T11:04:10.062Z,7092
2018-04-19T11:05:20.161Z,7076
2018-04-19T11:06:30.232Z,7100
2018-04-19T11:07:40.403Z,7060
2018-04-19T11:08:50.485Z,7096
2018-04-19T11:10:00.321Z,7132
2018-04-19T11:11:10.412Z,7104
2018-04-19T11:12:20.497Z,7124
2018-04-19T11:13:30.640Z,7064
2018-04-19T11:14:40.727Z,7100
2018-04-19T11:15:50.842Z,7112
2018-04-19T11:17:00.969Z,7140
2018-04-19T11:18:11.074Z,7116
2018-04-19T11:19:20.907Z,7188
2018-04-19T11:20:30.995Z,7176
2018-04-19T11:21:40.827Z,7184
2018-04-19T11:22:50.917Z,7216
2018-04-19T11:24:00.996Z,7232
2018-04-19T11:25:11.083Z,7216
2018-04-19T11:26:21.167Z,7188
2018-04-19T11:27:31.257Z,7224
2018-04-19T11:28:41.350Z,7244
2018-04-19T11:29:51.423Z,7272
2018-04-19T11:31:01.816Z,7320
2018-04-19T11:32:11.962Z,7268
2018-04-19T11:33:22.077Z,7308
2018-04-19T11:34:32.177Z,7276
2018-04-19T11:35:42.267Z,7392
2018-04-19T11:36:52.479Z,7320
2018-04-19T11:38:02.566Z,7344
2018-04-19T11:39:12.657Z,7352
2018-04-19T11:40:22.754Z,7360
2018-04-19T11:41:32.858Z,7296
2018-04-19T11:42:43.077Z,7288
2018-04-19T11:43:53.169Z,7292
2018-04-19T11:45:03.264Z,7292
2018-04-19T11:46:13.376Z,7356
2018-04-19T11:47:23.479Z,7320
2018-04-19T11:48:33.617Z,7260
2018-04-19T11:49:43.462Z,7256
2018-04-19T11:50:53.288Z,7296
2018-04-19T11:52:03.136Z,7372
2018-04-19T11:53:13.307Z,7352
2018-04-19T11:54:23.131Z,7436
2018-04-19T11:55:32.983Z,7484
2018-04-19T11:56:42.558Z,7492
2018-04-19T11:57:52.643Z,7396
2018-04-19T11:59:02.482Z,7436
2018-04-19T12:00:12.300Z,7448
2018-04-19T12:01:22.375Z,7424
2018-04-19T12:02:32.215Z,7428
2018-04-19T12:03:42.308Z,7408
2018-04-19T12:04:52.147Z,7368
2018-04-19T12:06:02.234Z,7384
2018-04-19T12:07:12.328Z,7436
2018-04-19T12:08:22.421Z,7544
2018-04-19T12:09:32.514Z,7476
2018-04-19T12:10:42.338Z,7428
2018-04-19T12:11:52.477Z,7456
2018-04-19T12:13:02.550Z,7492
2018-04-19T12:14:12.654Z,7532
2018-04-19T12:15:22.745Z,7424
2018-04-19T12:16:32.577Z,7408
2018-04-19T12:17:42.718Z,7344
2018-04-19T12:18:52.816Z,7344
2018-04-19T12:20:02.649Z,7324
2018-04-19T12:21:12.473Z,7320
2018-04-19T12:22:22.298Z,7372
2018-04-19T12:23:32.382Z,7380
2018-04-19T12:24:42.529Z,7396
2018-04-19T12:25:52.640Z,7356
2018-04-19T12:27:02.721Z,7428
2018-04-19T12:28:12.536Z,7372
2018-04-19T12:29:22.384Z,7364
2018-04-19T12:30:32.511Z,7220
2018-04-19T12:31:42.620Z,7236
2018-04-19T12:32:52.727Z,7200
2018-04-19T12:34:02.823Z,7200
2018-04-19T12:35:13.041Z,7212
2018-04-19T12:36:23.121Z,7196
2018-04-19T12:37:33.154Z,7176
2018-04-19T12:38:42.984Z,7184
2018-04-19T12:39:52.830Z,7148
2018-04-19T12:41:02.999Z,7096
2018-04-19T12:42:13.099Z,7036
2018-04-19T12:43:22.939Z,6992
2018-04-19T12:44:33.088Z,6992
2018-04-19T12:45:43.169Z,6976
2018-04-19T12:46:53.300Z,6980
2018-04-19T12:48:03.386Z,6984
2018-04-19T12:49:13.489Z,7056
2018-04-19T12:50:23.570Z,7020
2018-04-19T12:51:33.673Z,6944
2018-04-19T12:52:43.782Z,6880
2018-04-19T12:53:53.656Z,6888
2018-04-19T12:55:03.738Z,6876
2018-04-19T12:56:13.820Z,6836
2018-04-19T12:57:23.899Z,6844
2018-04-19T12:58:34.019Z,6792
2018-04-19T12:59:44.125Z,6864
2018-04-19T13:00:54.223Z,6788
2018-04-19T13:02:04.057Z,6744
2018-04-19T13:03:14.170Z,6832
2018-04-19T13:04:24.254Z,6796
2018-04-19T13:05:34.342Z,6684
2018-04-19T13:06:44.494Z,6632
2018-04-19T13:07:54.594Z,6692
2018-04-19T13:09:04.705Z,6656
2018-04-19T13:10:14.805Z,6624
2018-04-19T13:11:24.919Z,6592
2018-04-19T13:12:34.746Z,6608
2018-04-19T13:13:44.836Z,6668
2018-04-19T13:14:54.667Z,6664
2018-04-19T13:16:04.822Z,6528
2018-04-19T13:17:14.668Z,6520
2018-04-19T13:18:24.768Z,6480
2018-04-19T13:19:34.865Z,6360
2018-04-19T13:20:44.955Z,6420
2018-04-19T13:21:54.823Z,6504
2018-04-19T13:23:04.916Z,6488
2018-04-19T13:24:14.465Z,6420
2018-04-19T13:25:24.572Z,6440
2018-04-19T13:26:34.725Z,6460
2018-04-19T13:27:44.587Z,6452
2018-04-19T13:28:54.691Z,6360
2018-04-19T13:30:04.800Z,6372
2018-04-19T13:31:14.370Z,6440
2018-04-19T13:32:24.179Z,6392
2018-04-19T13:33:34.098Z,6312
2018-04-19T13:34:43.657Z,6316
2018-04-19T13:35:53.500Z,6348
2018-04-19T13:37:03.611Z,6320
2018-04-19T13:38:13.708Z,6180
2018-04-19T13:39:23.784Z,6192
2018-04-19T13:40:33.876Z,6280
2018-04-19T13:41:43.992Z,6196
2018-04-19T13:42:54.115Z,6168
2018-04-19T13:44:03.937Z,6092
2018-04-19T13:45:14.060Z,6084
2018-04-19T13:46:24.119Z,6024
2018-04-19T13:47:34.203Z,6068
2018-04-19T13:48:44.415Z,6072
2018-04-19T13:49:54.633Z,6064
2018-04-19T13:51:04.725Z,6000
2018-04-19T13:52:14.856Z,5944
2018-04-19T13:53:24.680Z,5988
2018-04-19T13:54:34.797Z,5912
2018-04-19T13:55:44.680Z,5900
2018-04-19T13:56:54.789Z,5976
2018-04-19T13:58:04.614Z,5956
2018-04-19T13:59:14.180Z,5940
2018-04-19T14:00:23.749Z,5916
2018-04-19T14:01:33.625Z,5932
2018-04-19T14:02:43.451Z,5916
2018-04-19T14:03:53.287Z,5844
2018-04-19T14:05:03.110Z,5812
2018-04-19T14:06:12.932Z,5768
2018-04-19T14:07:23.036Z,5756
2018-04-19T14:08:32.887Z,5740
2018-04-19T14:09:42.979Z,5720
2018-04-19T14:10:53.089Z,5516
2018-04-19T14:12:03.194Z,5740
2018-04-19T14:13:13.339Z,5640
2018-04-19T14:14:23.448Z,5564
2018-04-19T14:15:33.540Z,5576
2018-04-19T14:16:43.361Z,5532
2018-04-19T14:17:53.457Z,5528
2018-04-19T14:19:03.554Z,5524
2018-04-19T14:20:13.666Z,5476
2018-04-19T14:21:23.759Z,5464
2018-04-19T14:22:33.330Z,5408
2018-04-19T14:23:43.418Z,5376
2018-04-19T14:24:53.520Z,5392
2018-04-19T14:26:03.614Z,5360
2018-04-19T14:27:13.709Z,5336
2018-04-19T14:28:23.787Z,5380
2018-04-19T14:29:33.353Z,5372
2018-04-19T14:30:43.495Z,5300
2018-04-19T14:31:53.319Z,5328
2018-04-19T14:33:03.405Z,4948
2018-04-19T14:34:13.230Z,5112
2018-04-19T14:35:23.062Z,5228
2018-04-19T14:36:32.682Z,5264
2018-04-19T14:37:42.780Z,5240
2018-04-19T14:38:52.619Z,5216
2018-04-19T14:40:02.454Z,5188
2018-04-19T14:41:12.549Z,5132
2018-04-19T14:42:22.641Z,5108
2018-04-19T14:43:32.474Z,5108
2018-04-19T14:44:42.604Z,5080
2018-04-19T14:45:52.674Z,5040
2018-04-19T14:47:02.764Z,5016
2018-04-19T14:48:12.870Z,4988
2018-04-19T14:49:23.066Z,4932
2018-04-19T14:50:33.163Z,4988
2018-04-19T14:51:43.290Z,4884
2018-04-19T14:52:53.417Z,4832
2018-04-19T14:54:03.250Z,4748
2018-04-19T14:55:13.366Z,4744
2018-04-19T14:56:23.221Z,4532
2018-04-19T14:57:33.038Z,4656
2018-04-19T14:58:43.150Z,4640
2018-04-19T14:59:53.253Z,4604
2018-04-19T15:01:03.083Z,4684
2018-04-19T15:02:13.243Z,4684
2018-04-19T15:03:23.389Z,4596
2018-04-19T15:04:33.548Z,4580
2018-04-19T15:05:43.380Z,4596
2018-04-19T15:06:53.209Z,4612
2018-04-19T15:08:03.313Z,4348
2018-04-19T15:09:13.420Z,4500
2018-04-19T15:10:23.288Z,4464
2018-04-19T15:11:33.435Z,4212
2018-04-19T15:12:43.545Z,4412
2018-04-19T15:13:53.412Z,4380
2018-04-19T15:15:03.550Z,4288
2018-04-19T15:16:13.469Z,4256
2018-04-19T15:17:23.328Z,4264
2018-04-19T15:18:33.434Z,4236
2018-04-19T15:19:43.525Z,4180
2018-04-19T15:20:53.671Z,4144
2018-04-19T15:22:03.754Z,4208
2018-04-19T15:23:13.896Z,4148
2018-04-19T15:24:23.724Z,4124
2018-04-19T15:25:33.561Z,4120
2018-04-19T15:26:43.659Z,4048
2018-04-19T15:27:53.510Z,3736
2018-04-19T15:29:03.609Z,3880
2018-04-19T15:30:13.921Z,4064
2018-04-19T15:31:24.026Z,4012
2018-04-19T15:32:34.113Z,3956
2018-04-19T15:33:44.220Z,3932
2018-04-19T15:34:54.053Z,3908
2018-04-19T15:36:04.150Z,3880
2018-04-19T15:37:14.225Z,3776
2018-04-19T15:38:24.414Z,3780
2018-04-19T15:39:34.632Z,3768
2018-04-19T15:40:44.799Z,3768
2018-04-19T15:41:54.913Z,3728
2018-04-19T15:43:05.038Z,3720
2018-04-19T15:44:15.117Z,3692
2018-04-19T15:45:25.225Z,3676
2018-04-19T15:46:35.124Z,3644
2018-04-19T15:47:45.201Z,3584
2018-04-19T15:48:55.324Z,3352
2018-04-19T15:50:05.546Z,3272
2018-04-19T15:51:26.974Z,3428
2018-04-19T15:52:37.074Z,3324
2018-04-19T15:53:47.188Z,3264
2018-04-19T15:54:57.301Z,2896
2018-04-19T15:56:07.191Z,3288
2018-04-19T15:57:17.327Z,3152
2018-04-19T15:58:27.412Z,3100
2018-04-19T15:59:37.564Z,3068
2018-04-19T16:00:47.668Z,3060
2018-04-19T16:01:57.670Z,3192
2018-04-19T16:03:07.982Z,3188
2018-04-19T16:04:17.833Z,3064
2018-04-19T16:05:28.007Z,3124
2018-04-19T16:06:38.128Z,3088
2018-04-19T16:07:47.999Z,3040
2018-04-19T16:08:58.090Z,2992
2018-04-19T16:10:07.649Z,2948
2018-04-19T16:11:17.889Z,2928
2018-04-19T16:12:28.062Z,2904
2018-04-19T16:13:38.176Z,2832
2018-04-19T16:14:48.285Z,2788
2018-04-19T16:15:58.147Z,2724
2018-04-19T16:17:08.353Z,2680
2018-04-19T16:18:18.277Z,2648
2018-04-19T16:19:28.368Z,2568
2018-04-19T16:20:38.193Z,2540
2018-04-19T16:21:48.365Z,2364
2018-04-19T16:22:58.495Z,2332